Time;durP1;ratioP1;P1;durP2;ratioP2;P2;SDS_P1;SDS_P2;PMS_P1;PMS_P2;Temp;Humidity;BMP_temperature;BMP_pressure;BME280_temperature;BME280_humidity;BME280_pressure;Samples;Min_cycle;Max_cycle;Signal;HPM_P1;HPM_P2
2020/12/26 00:00:04;;;;;;;;;10.00;10.00;;;;;;;;4939359;28;11539;-78
2020/12/26 00:02:31;;;;;;;;;11.67;11.67;;;;;;;;4935081;28;11510;-76
2020/12/26 00:04:58;;;;;;;;;13.00;13.00;;;;;;;;4951109;28;11611;-79
2020/12/26 00:07:25;;;;;;;;;9.00;9.00;;;;;;;;4951345;28;11584;-75
2020/12/26 00:09:52;;;;;;;;;15.67;13.67;;;;;;;;4942444;28;11636;-77
2020/12/26 00:12:20;;;;;;;;;6.33;6.33;;;;;;;;4928729;28;12452;-80
2020/12/26 00:14:47;;;;;;;;;12.00;12.00;;;;;;;;4952004;28;11532;-80
2020/12/26 00:17:13;;;;;;;;;12.00;12.00;;;;;;;;4939107;28;11630;-79
2020/12/26 00:19:40;;;;;;;;;13.00;13.00;;;;;;;;4946874;28;11529;-80
2020/12/26 00:22:07;;;;;;;;;18.00;18.00;;;;;;;;4952894;28;11558;-78
2020/12/26 00:24:34;;;;;;;;;18.33;18.33;;;;;;;;4949884;28;11587;-77
2020/12/26 00:27:00;;;;;;;;;18.00;16.00;;;;;;;;4956200;28;11656;-80
2020/12/26 00:29:28;;;;;;;;;21.00;19.67;;;;;;;;4955142;28;12374;-79
2020/12/26 00:31:55;;;;;;;;;13.00;13.00;;;;;;;;4946848;28;11513;-81
2020/12/26 00:34:22;;;;;;;;;19.00;19.00;;;;;;;;4952808;28;11563;-79
2020/12/26 00:36:49;;;;;;;;;21.67;19.00;;;;;;;;4952868;28;11614;-80
2020/12/26 00:39:16;;;;;;;;;31.33;30.00;;;;;;;;4949117;28;12195;-81
2020/12/26 00:41:46;;;;;;;;;36.67;29.67;;;;;;;;4957218;28;11706;-80
2020/12/26 00:44:13;;;;;;;;;30.33;30.00;;;;;;;;4929713;28;11609;-78
2020/12/26 00:46:41;;;;;;;;;24.67;24.33;;;;;;;;4946410;28;8878;-80
2020/12/26 00:49:08;;;;;;;;;30.00;25.00;;;;;;;;4955759;28;12437;-79
2020/12/26 00:51:34;;;;;;;;;26.33;24.33;;;;;;;;4952613;28;11589;-80
2020/12/26 00:54:01;;;;;;;;;39.00;39.00;;;;;;;;4962899;28;11626;-78
2020/12/26 00:56:28;;;;;;;;;31.33;25.67;;;;;;;;4973136;28;8892;-79
2020/12/26 00:58:54;;;;;;;;;24.67;24.67;;;;;;;;4981215;28;11603;-78
2020/12/26 01:01:21;;;;;;;;;22.67;21.00;;;;;;;;4975035;28;11519;-80
2020/12/26 01:03:49;;;;;;;;;26.33;22.00;;;;;;;;4975324;28;11696;-79
2020/12/26 01:06:16;;;;;;;;;16.00;14.67;;;;;;;;4958606;28;12356;-78
2020/12/26 01:08:44;;;;;;;;;15.00;15.00;;;;;;;;4964658;28;11625;-79
2020/12/26 01:11:11;;;;;;;;;18.67;18.67;;;;;;;;4976993;28;11610;-78
2020/12/26 01:13:38;;;;;;;;;22.33;22.33;;;;;;;;4966471;28;11578;-79
2020/12/26 01:16:05;;;;;;;;;14.00;11.67;;;;;;;;4958477;28;11633;-79
2020/12/26 01:18:32;;;;;;;;;19.00;14.33;;;;;;;;4970130;28;11592;-79
2020/12/26 01:21:03;;;;;;;;;20.00;16.00;;;;;;;;4967712;28;11626;-80
2020/12/26 01:23:30;;;;;;;;;14.50;14.50;;;;;;;;4972419;28;11562;-80
2020/12/26 01:25:56;;;;;;;;;16.00;16.00;;;;;;;;4949884;28;11671;-80
2020/12/26 01:28:23;;;;;;;;;13.00;13.00;;;;;;;;4967687;28;11576;-78
2020/12/26 01:30:50;;;;;;;;;17.75;16.00;;;;;;;;4975847;28;11504;-80
2020/12/26 01:33:16;;;;;;;;;16.25;13.25;;;;;;;;4973695;28;11621;-79
2020/12/26 01:35:43;;;;;;;;;17.25;14.50;;;;;;;;4976292;28;11600;-78
2020/12/26 01:38:11;;;;;;;;;14.75;14.75;;;;;;;;4968283;28;11631;-79
2020/12/26 01:40:38;;;;;;;;;14.00;11.25;;;;;;;;4971598;28;11600;-79
2020/12/26 01:43:05;;;;;;;;;18.00;15.75;;;;;;;;4964589;28;11599;-80
2020/12/26 01:45:32;;;;;;;;;16.25;15.50;;;;;;;;4947959;28;11566;-80
2020/12/26 01:47:59;;;;;;;;;13.75;13.25;;;;;;;;4969111;28;11673;-80
2020/12/26 01:50:26;;;;;;;;;20.25;18.75;;;;;;;;4968974;28;11611;-78
2020/12/26 01:52:53;;;;;;;;;18.33;18.33;;;;;;;;4967231;28;11583;-79
2020/12/26 01:55:21;;;;;;;;;33.00;27.33;;;;;;;;4954107;28;11593;-78
2020/12/26 01:57:52;;;;;;;;;29.33;25.00;;;;;;;;4948723;28;11627;-80
2020/12/26 02:00:20;;;;;;;;;36.00;32.33;;;;;;;;4956706;28;11680;-79
2020/12/26 02:02:46;;;;;;;;;40.67;38.00;;;;;;;;4959474;28;8877;-78
2020/12/26 02:05:14;;;;;;;;;31.00;31.00;;;;;;;;4954282;28;8958;-79
2020/12/26 02:07:41;;;;;;;;;31.00;29.67;;;;;;;;4952560;28;11676;-80
2020/12/26 02:10:08;;;;;;;;;32.33;25.00;;;;;;;;4954662;28;12442;-81
2020/12/26 02:12:36;;;;;;;;;22.33;22.33;;;;;;;;4956210;28;11592;-79
2020/12/26 02:15:03;;;;;;;;;28.00;20.33;;;;;;;;4956105;28;11603;-78
2020/12/26 02:17:30;;;;;;;;;29.00;28.00;;;;;;;;4950319;28;11585;-80
2020/12/26 02:19:57;;;;;;;;;30.00;25.33;;;;;;;;4956441;28;11637;-80
2020/12/26 02:22:24;;;;;;;;;33.67;29.33;;;;;;;;4959179;28;11578;-79
2020/12/26 02:24:52;;;;;;;;;35.67;31.67;;;;;;;;4962764;28;11670;-78
2020/12/26 02:27:19;;;;;;;;;44.33;41.00;;;;;;;;4957083;28;9006;-80
2020/12/26 02:29:46;;;;;;;;;62.67;51.67;;;;;;;;4956586;28;8961;-80
2020/12/26 02:32:13;;;;;;;;;49.33;43.33;;;;;;;;4935170;28;8815;-79
2020/12/26 02:34:40;;;;;;;;;31.67;27.00;;;;;;;;4977430;28;8879;-78
2020/12/26 02:37:07;;;;;;;;;23.33;23.33;;;;;;;;4958692;28;11592;-79
2020/12/26 02:39:34;;;;;;;;;26.25;23.25;;;;;;;;4951914;28;11561;-79
2020/12/26 02:42:01;;;;;;;;;27.25;25.25;;;;;;;;4928550;28;11568;-80
2020/12/26 02:44:28;;;;;;;;;23.00;23.00;;;;;;;;4948223;28;11672;-79
2020/12/26 02:46:55;;;;;;;;;27.33;22.00;;;;;;;;4952928;28;11638;-79
2020/12/26 02:49:22;;;;;;;;;23.25;21.00;;;;;;;;4957977;28;11756;-78
2020/12/26 02:51:49;;;;;;;;;25.00;22.50;;;;;;;;4945618;28;11700;-79
2020/12/26 02:54:16;;;;;;;;;25.33;24.00;;;;;;;;4960732;28;11693;-79
2020/12/26 02:56:42;;;;;;;;;24.75;22.00;;;;;;;;4946633;28;11731;-81
2020/12/26 02:59:10;;;;;;;;;26.75;24.25;;;;;;;;4953951;28;11595;-79
2020/12/26 03:01:39;;;;;;;;;27.75;25.25;;;;;;;;4959998;28;11539;-79
2020/12/26 03:04:07;;;;;;;;;25.25;23.00;;;;;;;;4935764;28;11725;-80
2020/12/26 03:06:34;;;;;;;;;23.00;19.75;;;;;;;;4958135;28;11703;-80
2020/12/26 03:09:01;;;;;;;;;27.33;25.67;;;;;;;;4935102;28;11636;-80
2020/12/26 03:11:28;;;;;;;;;34.33;29.33;;;;;;;;4938488;28;11707;-81
2020/12/26 03:13:55;;;;;;;;;32.67;22.33;;;;;;;;4936999;28;11606;-79
2020/12/26 03:16:22;;;;;;;;;35.00;31.00;;;;;;;;4960235;28;11603;-79
2020/12/26 03:18:49;;;;;;;;;38.00;33.00;;;;;;;;4962697;28;11594;-80
2020/12/26 03:21:16;;;;;;;;;35.67;32.00;;;;;;;;4940567;28;11605;-79
2020/12/26 03:23:43;;;;;;;;;35.33;35.33;;;;;;;;4949839;28;11603;-81
2020/12/26 03:26:10;;;;;;;;;32.67;29.00;;;;;;;;4958354;28;11616;-81
2020/12/26 03:28:37;;;;;;;;;36.67;35.67;;;;;;;;4961612;28;11592;-80
2020/12/26 03:31:04;;;;;;;;;28.67;28.67;;;;;;;;4961993;28;11544;-80
2020/12/26 03:33:31;;;;;;;;;34.00;31.00;;;;;;;;4956745;28;12383;-77
2020/12/26 03:35:58;;;;;;;;;29.25;26.75;;;;;;;;4959338;28;11606;-78
2020/12/26 03:38:25;;;;;;;;;26.50;21.25;;;;;;;;4954357;28;11603;-79
2020/12/26 03:40:51;;;;;;;;;32.67;32.67;;;;;;;;4952321;28;11598;-78
2020/12/26 03:43:18;;;;;;;;;28.33;28.33;;;;;;;;4953577;28;11638;-77
2020/12/26 03:45:45;;;;;;;;;19.00;19.00;;;;;;;;4950902;28;11599;-78
2020/12/26 03:48:12;;;;;;;;;16.25;13.75;;;;;;;;4949673;28;11590;-78
2020/12/26 03:50:39;;;;;;;;;17.00;17.00;;;;;;;;4949019;28;11570;-79
2020/12/26 03:53:06;;;;;;;;;13.75;10.25;;;;;;;;4964485;28;11571;-78
2020/12/26 03:55:32;;;;;;;;;12.00;12.00;;;;;;;;4949035;28;12301;-78
2020/12/26 03:58:00;;;;;;;;;13.75;11.25;;;;;;;;4956433;28;11870;-78
2020/12/26 04:00:27;;;;;;;;;16.00;13.25;;;;;;;;4949259;28;11561;-78
2020/12/26 04:02:54;;;;;;;;;15.50;14.50;;;;;;;;4948380;28;11596;-78
2020/12/26 04:05:21;;;;;;;;;12.00;12.00;;;;;;;;4963940;28;11617;-78
2020/12/26 04:07:49;;;;;;;;;10.25;10.25;;;;;;;;4957342;28;11531;-81
2020/12/26 04:10:15;;;;;;;;;16.00;16.00;;;;;;;;4956215;28;11550;-79
2020/12/26 04:12:42;;;;;;;;;16.25;10.00;;;;;;;;4945058;28;11572;-81
2020/12/26 04:15:09;;;;;;;;;18.00;10.25;;;;;;;;4951608;28;11592;-81
2020/12/26 04:17:35;;;;;;;;;9.00;9.00;;;;;;;;4946143;28;11574;-80
2020/12/26 04:20:02;;;;;;;;;13.00;10.25;;;;;;;;4947024;28;11605;-81
2020/12/26 04:22:29;;;;;;;;;7.00;7.00;;;;;;;;4962770;28;11568;-79
2020/12/26 04:24:57;;;;;;;;;10.00;10.00;;;;;;;;4953366;28;11583;-80
2020/12/26 04:27:23;;;;;;;;;13.75;13.75;;;;;;;;4952254;28;11573;-79
2020/12/26 04:29:50;;;;;;;;;10.00;10.00;;;;;;;;4961282;28;11572;-79
2020/12/26 04:32:17;;;;;;;;;12.50;8.50;;;;;;;;4959323;28;11630;-80
2020/12/26 04:34:47;;;;;;;;;16.50;10.00;;;;;;;;4959178;28;11589;-80
2020/12/26 04:37:13;;;;;;;;;8.00;8.00;;;;;;;;4947701;28;12348;-79
2020/12/26 04:39:42;;;;;;;;;4.00;4.00;;;;;;;;4951482;28;11544;-79
2020/12/26 04:42:10;;;;;;;;;19.25;10.00;;;;;;;;4953832;28;11549;-79
2020/12/26 04:44:37;;;;;;;;;7.75;7.75;;;;;;;;4947838;28;11577;-78
2020/12/26 04:47:08;;;;;;;;;9.00;9.00;;;;;;;;4945396;28;11659;-78
2020/12/26 04:49:35;;;;;;;;;10.00;7.00;;;;;;;;4965477;28;11598;-79
2020/12/26 04:52:04;;;;;;;;;12.25;9.50;;;;;;;;4962314;28;11534;-80
2020/12/26 04:54:34;;;;;;;;;10.00;10.00;;;;;;;;4952827;28;11568;-80
2020/12/26 04:57:03;;;;;;;;;8.25;8.25;;;;;;;;4959624;28;12248;-79
2020/12/26 04:59:30;;;;;;;;;8.25;8.25;;;;;;;;4950294;28;11564;-79
2020/12/26 05:01:57;;;;;;;;;16.50;9.00;;;;;;;;4954129;28;11582;-78
2020/12/26 05:04:24;;;;;;;;;13.50;13.50;;;;;;;;4962199;28;11574;-80
2020/12/26 05:06:52;;;;;;;;;13.75;13.00;;;;;;;;4957178;28;11612;-79
2020/12/26 05:09:21;;;;;;;;;15.00;14.25;;;;;;;;4958475;28;11602;-79
2020/12/26 05:11:52;;;;;;;;;16.50;12.25;;;;;;;;4959753;28;11729;-78
2020/12/26 05:14:19;;;;;;;;;15.50;13.00;;;;;;;;4959904;28;11614;-79
2020/12/26 05:16:47;;;;;;;;;13.50;10.75;;;;;;;;4960532;28;11627;-76
2020/12/26 05:19:14;;;;;;;;;10.00;10.00;;;;;;;;4954481;28;11588;-76
2020/12/26 05:21:41;;;;;;;;;9.50;9.50;;;;;;;;4955330;28;11562;-80
2020/12/26 05:24:09;;;;;;;;;7.75;7.75;;;;;;;;4948500;28;11588;-79
2020/12/26 05:26:40;;;;;;;;;11.50;11.50;;;;;;;;4962980;28;11507;-80
2020/12/26 05:29:07;;;;;;;;;15.25;13.00;;;;;;;;4952291;28;11563;-79
2020/12/26 05:31:49;;;;;;;;;12.00;12.00;;;;;;;;4961428;28;12369;-79
2020/12/26 05:34:17;;;;;;;;;12.75;12.75;;;;;;;;4955734;28;11578;-80
2020/12/26 05:36:44;;;;;;;;;10.75;10.00;;;;;;;;4963326;28;11636;-80
2020/12/26 05:39:12;;;;;;;;;11.25;10.25;;;;;;;;4955906;28;11598;-80
2020/12/26 05:41:40;;;;;;;;;10.00;10.00;;;;;;;;4958841;28;11558;-80
2020/12/26 05:44:07;;;;;;;;;13.50;10.75;;;;;;;;4952005;28;11516;-79
2020/12/26 05:46:34;;;;;;;;;8.50;8.25;;;;;;;;4949894;28;11564;-79
2020/12/26 05:49:23;;;;;;;;;11.00;7.75;;;;;;;;4965939;28;11570;-80
2020/12/26 05:51:52;;;;;;;;;7.50;7.50;;;;;;;;4946457;28;11568;-79
2020/12/26 05:54:20;;;;;;;;;13.75;10.75;;;;;;;;4954951;28;11547;-80
2020/12/26 05:56:46;;;;;;;;;12.25;7.75;;;;;;;;4963875;28;11646;-79
2020/12/26 05:59:26;;;;;;;;;10.00;10.00;;;;;;;;4951154;28;11573;-80
2020/12/26 06:01:55;;;;;;;;;13.50;12.00;;;;;;;;4942676;28;11673;-79
2020/12/26 06:04:22;;;;;;;;;12.75;11.25;;;;;;;;4953441;28;11594;-79
2020/12/26 06:06:52;;;;;;;;;16.75;16.00;;;;;;;;4963900;28;11577;-80
2020/12/26 06:09:20;;;;;;;;;14.50;12.25;;;;;;;;4959157;28;11605;-81
2020/12/26 06:11:48;;;;;;;;;12.75;12.75;;;;;;;;4949843;28;11563;-79
2020/12/26 06:14:18;;;;;;;;;12.50;11.25;;;;;;;;4937908;28;11563;-80
2020/12/26 06:16:50;;;;;;;;;13.75;10.25;;;;;;;;4950408;28;11585;-78
2020/12/26 06:19:19;;;;;;;;;11.50;11.50;;;;;;;;4960500;28;11552;-78
2020/12/26 06:21:52;;;;;;;;;16.00;16.00;;;;;;;;4951951;28;11584;-81
2020/12/26 06:24:20;;;;;;;;;6.75;6.75;;;;;;;;4932542;28;11681;-80
2020/12/26 06:26:48;;;;;;;;;8.25;8.25;;;;;;;;4952730;28;11548;-80
2020/12/26 06:29:17;;;;;;;;;14.33;14.33;;;;;;;;4937931;28;11520;-79
2020/12/26 06:31:47;;;;;;;;;12.00;12.00;;;;;;;;4958697;28;11522;-80
2020/12/26 06:34:17;;;;;;;;;12.67;12.67;;;;;;;;4963839;28;11600;-79
2020/12/26 06:36:45;;;;;;;;;10.67;10.67;;;;;;;;4954350;28;11687;-81
2020/12/26 06:39:29;;;;;;;;;15.00;12.67;;;;;;;;4952230;28;11597;-79
2020/12/26 06:42:12;;;;;;;;;16.67;16.67;;;;;;;;4942633;28;11572;-79
2020/12/26 06:44:39;;;;;;;;;15.00;15.00;;;;;;;;4957429;28;11582;-80
2020/12/26 06:47:06;;;;;;;;;19.00;19.00;;;;;;;;4956023;28;11623;-76
2020/12/26 06:49:33;;;;;;;;;18.33;18.33;;;;;;;;4958588;28;11597;-75
2020/12/26 06:52:00;;;;;;;;;15.67;15.67;;;;;;;;4951869;28;12483;-79
2020/12/26 06:54:55;;;;;;;;;14.33;14.33;;;;;;;;4959827;28;11651;-77
2020/12/26 06:57:37;;;;;;;;;16.00;16.00;;;;;;;;4928103;28;11641;-74
2020/12/26 07:00:29;;;;;;;;;17.33;17.33;;;;;;;;4945764;28;11636;-74
2020/12/26 07:03:18;;;;;;;;;16.67;16.67;;;;;;;;4950896;28;8881;-74
2020/12/26 07:05:45;;;;;;;;;14.33;14.33;;;;;;;;4964257;28;9025;-75
2020/12/26 07:08:22;;;;;;;;;18.67;18.67;;;;;;;;4964643;28;8901;-75
2020/12/26 07:10:50;;;;;;;;;15.00;15.00;;;;;;;;4945769;28;8871;-75
2020/12/26 07:13:51;;;;;;;;;17.33;17.33;;;;;;;;4938318;28;9656;-76
2020/12/26 07:16:40;;;;;;;;;21.67;21.67;;;;;;;;4892747;29;9020;-77
2020/12/26 07:19:38;;;;;;;;;23.67;20.33;;;;;;;;4876315;29;8978;-79
2020/12/26 07:22:07;;;;;;;;;22.67;22.33;;;;;;;;4880670;29;8887;-75
2020/12/26 07:24:36;;;;;;;;;16.00;16.00;;;;;;;;4950753;28;8914;-80
2020/12/26 07:27:17;;;;;;;;;18.33;18.33;;;;;;;;4952756;28;10196;-77
2020/12/26 07:29:53;;;;;;;;;20.33;20.33;;;;;;;;4958345;28;8921;-76
2020/12/26 07:32:40;;;;;;;;;20.33;20.33;;;;;;;;4960451;28;8804;-78
2020/12/26 07:35:08;;;;;;;;;16.67;16.67;;;;;;;;4969213;28;8919;-82
2020/12/26 07:37:35;;;;;;;;;17.33;17.33;;;;;;;;4960468;28;8869;-80
2020/12/26 07:40:02;;;;;;;;;25.00;24.33;;;;;;;;4961946;28;9649;-83
2020/12/26 07:42:31;;;;;;;;;24.00;22.00;;;;;;;;4962303;28;8956;-80
2020/12/26 07:44:58;;;;;;;;;19.00;19.00;;;;;;;;4954280;28;8891;-81
2020/12/26 07:47:25;;;;;;;;;24.00;24.00;;;;;;;;4965049;28;8918;-82
2020/12/26 07:49:58;;;;;;;;;23.33;21.33;;;;;;;;4966163;28;8879;-82
2020/12/26 07:52:25;;;;;;;;;26.00;26.00;;;;;;;;4958544;28;8895;-81
2020/12/26 07:55:02;;;;;;;;;24.67;24.67;;;;;;;;4977377;28;8884;-82
2020/12/26 07:57:30;;;;;;;;;33.00;32.00;;;;;;;;4976551;28;8914;-78
2020/12/26 07:59:57;;;;;;;;;21.33;21.33;;;;;;;;4963261;28;9017;-76
2020/12/26 08:02:24;;;;;;;;;32.00;31.33;;;;;;;;4968344;28;8867;-76
2020/12/26 08:04:51;;;;;;;;;27.67;27.67;;;;;;;;4971789;28;8879;-79
2020/12/26 08:07:19;;;;;;;;;25.67;25.67;;;;;;;;4969081;28;9045;-78
2020/12/26 08:09:49;;;;;;;;;25.00;22.00;;;;;;;;4974260;28;9767;-78
2020/12/26 08:12:18;;;;;;;;;25.67;24.67;;;;;;;;4971164;28;8952;-76
2020/12/26 08:14:56;;;;;;;;;22.67;22.00;;;;;;;;4978972;28;8882;-77
2020/12/26 08:17:23;;;;;;;;;25.00;25.00;;;;;;;;4958238;28;8890;-76
2020/12/26 08:19:57;;;;;;;;;21.67;21.67;;;;;;;;4972169;28;8876;-78
2020/12/26 08:22:25;;;;;;;;;24.67;24.67;;;;;;;;4956880;28;8919;-78
2020/12/26 08:25:06;;;;;;;;;24.67;24.67;;;;;;;;4968246;28;8868;-77
2020/12/26 08:27:33;;;;;;;;;24.00;24.00;;;;;;;;4968855;28;8867;-76
2020/12/26 08:30:05;;;;;;;;;22.67;21.67;;;;;;;;4978009;28;11719;-76
2020/12/26 08:32:38;;;;;;;;;22.33;22.33;;;;;;;;4958500;28;11614;-80
2020/12/26 08:35:08;;;;;;;;;22.67;21.33;;;;;;;;4965780;28;11704;-77
2020/12/26 08:37:40;;;;;;;;;19.67;19.67;;;;;;;;4965957;28;11633;-77
2020/12/26 08:40:12;;;;;;;;;25.33;25.33;;;;;;;;4966570;28;11617;-77
2020/12/26 08:42:39;;;;;;;;;23.33;21.00;;;;;;;;4967652;28;12523;-77
2020/12/26 08:45:29;;;;;;;;;22.67;21.67;;;;;;;;4971426;28;11613;-78
2020/12/26 08:47:59;;;;;;;;;23.67;19.67;;;;;;;;4971663;28;11649;-78
2020/12/26 08:50:27;;;;;;;;;21.67;20.33;;;;;;;;4973477;28;11650;-78
2020/12/26 08:53:08;;;;;;;;;31.00;28.67;;;;;;;;4959022;28;11563;-77
2020/12/26 08:55:49;;;;;;;;;31.33;27.00;;;;;;;;4976909;28;11622;-77
2020/12/26 08:58:26;;;;;;;;;32.33;29.00;;;;;;;;4977759;28;11591;-78
2020/12/26 09:00:55;;;;;;;;;27.00;27.00;;;;;;;;4972748;28;11635;-78
2020/12/26 09:03:23;;;;;;;;;28.00;28.00;;;;;;;;4975458;28;11604;-76
2020/12/26 09:05:51;;;;;;;;;18.33;16.67;;;;;;;;4974480;28;12405;-77
2020/12/26 09:08:18;;;;;;;;;49.00;37.33;;;;;;;;4955025;28;11603;-78
2020/12/26 09:11:03;;;;;;;;;17.50;17.25;;;;;;;;4978071;28;8964;-77
2020/12/26 09:13:34;;;;;;;;;25.50;22.50;;;;;;;;4973491;28;12287;-78
2020/12/26 09:16:06;;;;;;;;;29.25;26.50;;;;;;;;4956710;28;11626;-77
2020/12/26 09:18:38;;;;;;;;;25.00;20.00;;;;;;;;4975568;28;11605;-77
2020/12/26 09:21:05;;;;;;;;;24.75;21.75;;;;;;;;4958778;28;11566;-77
2020/12/26 09:23:39;;;;;;;;;23.25;23.25;;;;;;;;4975380;28;11594;-77
2020/12/26 09:26:11;;;;;;;;;22.75;19.00;;;;;;;;4974195;28;12374;-77
2020/12/26 09:28:50;;;;;;;;;30.00;26.25;;;;;;;;4960837;28;11596;-77
2020/12/26 09:31:20;;;;;;;;;24.50;24.00;;;;;;;;4964570;28;11549;-77
2020/12/26 09:33:47;;;;;;;;;20.50;19.00;;;;;;;;4975888;28;11597;-77
2020/12/26 09:36:15;;;;;;;;;21.50;20.00;;;;;;;;4974232;28;12438;-76
2020/12/26 09:38:43;;;;;;;;;26.75;22.50;;;;;;;;4972022;28;11641;-76
2020/12/26 09:41:12;;;;;;;;;23.00;22.75;;;;;;;;4966647;28;11691;-76
2020/12/26 09:43:39;;;;;;;;;19.25;15.50;;;;;;;;4971701;28;11581;-76
2020/12/26 09:46:06;;;;;;;;;14.75;11.75;;;;;;;;4983988;28;11602;-76
2020/12/26 09:48:34;;;;;;;;;18.00;18.00;;;;;;;;4979152;28;11653;-77
2020/12/26 09:51:01;;;;;;;;;15.50;12.75;;;;;;;;4977777;28;11663;-76
2020/12/26 09:53:27;;;;;;;;;15.75;14.50;;;;;;;;4976976;28;11587;-77
2020/12/26 09:55:54;;;;;;;;;10.75;10.75;;;;;;;;4979444;28;11575;-76
2020/12/26 09:58:21;;;;;;;;;16.00;14.00;;;;;;;;4975491;28;11569;-76
2020/12/26 10:00:48;;;;;;;;;11.75;11.75;;;;;;;;4973343;28;11521;-76
2020/12/26 10:03:15;;;;;;;;;11.00;11.00;;;;;;;;4957819;28;11666;-76
2020/12/26 10:05:42;;;;;;;;;8.50;8.50;;;;;;;;4975771;28;11563;-76
2020/12/26 10:08:09;;;;;;;;;11.00;11.00;;;;;;;;4975363;28;11683;-77
2020/12/26 10:10:36;;;;;;;;;11.00;11.00;;;;;;;;4978787;28;11641;-76
2020/12/26 10:13:03;;;;;;;;;9.50;9.50;;;;;;;;4972684;28;11577;-76
2020/12/26 10:15:30;;;;;;;;;9.25;7.50;;;;;;;;4977487;28;11545;-75
2020/12/26 10:17:57;;;;;;;;;8.75;8.75;;;;;;;;4979406;28;11704;-74
2020/12/26 10:20:23;;;;;;;;;7.75;6.25;;;;;;;;4980415;28;11597;-74
2020/12/26 10:22:51;;;;;;;;;7.00;7.00;;;;;;;;4982422;28;11545;-77
2020/12/26 10:25:18;;;;;;;;;8.25;5.50;;;;;;;;4984082;28;11659;-75
2020/12/26 10:27:45;;;;;;;;;4.25;2.00;;;;;;;;4982083;28;12467;-76
2020/12/26 10:30:12;;;;;;;;;5.00;2.00;;;;;;;;4983397;28;11676;-76
2020/12/26 10:32:38;;;;;;;;;1.00;1.00;;;;;;;;4964348;28;11548;-75
2020/12/26 10:35:05;;;;;;;;;3.50;3.50;;;;;;;;4982487;28;11506;-75
2020/12/26 10:37:32;;;;;;;;;1.00;1.00;;;;;;;;4984948;28;11551;-75
2020/12/26 10:40:00;;;;;;;;;3.25;1.00;;;;;;;;4986096;28;11529;-75
2020/12/26 10:42:27;;;;;;;;;4.00;4.00;;;;;;;;4985853;28;11600;-76
2020/12/26 10:44:54;;;;;;;;;4.00;4.00;;;;;;;;4980291;28;11686;-75
2020/12/26 10:47:21;;;;;;;;;2.00;2.00;;;;;;;;4977726;28;11602;-68
2020/12/26 10:49:48;;;;;;;;;1.50;1.50;;;;;;;;4983121;28;11553;-69
2020/12/26 10:52:14;;;;;;;;;4.00;4.00;;;;;;;;4975302;28;11470;-69
2020/12/26 10:54:41;;;;;;;;;4.75;4.75;;;;;;;;4979350;28;11547;-69
2020/12/26 10:57:08;;;;;;;;;5.00;5.00;;;;;;;;4982232;28;11550;-71
2020/12/26 10:59:38;;;;;;;;;7.50;5.00;;;;;;;;4976475;28;12977;-72
2020/12/26 11:02:05;;;;;;;;;4.50;4.50;;;;;;;;4977268;28;11510;-71
2020/12/26 11:04:31;;;;;;;;;4.75;4.75;;;;;;;;4978045;28;11603;-71
2020/12/26 11:06:58;;;;;;;;;4.00;4.00;;;;;;;;4978778;28;11544;-72
2020/12/26 11:09:25;;;;;;;;;1.50;1.50;;;;;;;;4977905;28;11526;-71
2020/12/26 11:11:53;;;;;;;;;2.00;2.00;;;;;;;;4979276;28;11517;-71
2020/12/26 11:14:20;;;;;;;;;2.00;2.00;;;;;;;;4981066;28;11465;-71
2020/12/26 11:16:48;;;;;;;;;3.00;3.00;;;;;;;;4970042;28;12337;-71
2020/12/26 11:19:15;;;;;;;;;1.75;1.75;;;;;;;;4974068;28;11466;-70
2020/12/26 11:21:42;;;;;;;;;2.00;2.00;;;;;;;;4974337;28;11497;-70
2020/12/26 11:24:08;;;;;;;;;3.50;3.50;;;;;;;;4976390;28;11463;-71
2020/12/26 11:26:35;;;;;;;;;2.00;2.00;;;;;;;;4964713;28;11590;-71
2020/12/26 11:29:02;;;;;;;;;2.00;2.00;;;;;;;;4963430;28;11467;-71
2020/12/26 11:31:29;;;;;;;;;0.00;0.00;;;;;;;;4969370;28;11429;-72
2020/12/26 11:33:56;;;;;;;;;1.00;1.00;;;;;;;;4976888;28;11554;-70
2020/12/26 11:36:25;;;;;;;;;2.00;2.00;;;;;;;;4976828;28;11481;-71
2020/12/26 11:38:52;;;;;;;;;4.25;2.00;;;;;;;;4971824;28;11551;-71
2020/12/26 11:41:20;;;;;;;;;1.00;1.00;;;;;;;;4962975;28;11513;-71
2020/12/26 11:43:46;;;;;;;;;1.00;1.00;;;;;;;;4982521;28;11560;-71
2020/12/26 11:46:14;;;;;;;;;2.50;2.50;;;;;;;;4971783;28;11487;-70
2020/12/26 11:48:41;;;;;;;;;1.00;1.00;;;;;;;;4976396;28;11468;-71
2020/12/26 11:51:10;;;;;;;;;0.50;0.50;;;;;;;;4965604;28;11464;-70
2020/12/26 11:53:36;;;;;;;;;1.25;1.25;;;;;;;;4967964;28;11474;-70
2020/12/26 11:56:08;;;;;;;;;3.00;1.00;;;;;;;;4972798;28;11455;-72
2020/12/26 11:58:35;;;;;;;;;1.00;1.00;;;;;;;;4972973;28;11476;-71
2020/12/26 12:01:02;;;;;;;;;2.75;1.25;;;;;;;;4971111;28;11397;-70
2020/12/26 12:03:29;;;;;;;;;4.00;1.50;;;;;;;;4976856;28;11453;-71
2020/12/26 12:05:56;;;;;;;;;1.00;1.00;;;;;;;;4969361;28;11505;-72
2020/12/26 12:08:23;;;;;;;;;0.00;0.00;;;;;;;;4978683;28;11507;-70
2020/12/26 12:10:50;;;;;;;;;2.50;1.00;;;;;;;;4966824;28;11239;-71
2020/12/26 12:13:17;;;;;;;;;2.00;1.00;;;;;;;;4966024;28;11478;-71
2020/12/26 12:15:44;;;;;;;;;0.50;0.50;;;;;;;;4987750;28;11456;-71
2020/12/26 12:18:11;;;;;;;;;2.00;2.00;;;;;;;;4975633;28;11454;-71
2020/12/26 12:20:39;;;;;;;;;0.75;0.75;;;;;;;;4964316;28;11453;-71
2020/12/26 12:23:06;;;;;;;;;4.00;2.00;;;;;;;;4973931;28;11479;-70
2020/12/26 12:25:33;;;;;;;;;2.00;2.00;;;;;;;;4971206;28;11466;-70
2020/12/26 12:28:00;;;;;;;;;6.00;4.00;;;;;;;;4965294;28;11506;-71
2020/12/26 12:30:27;;;;;;;;;9.25;7.00;;;;;;;;4976852;28;12247;-70
2020/12/26 12:32:54;;;;;;;;;3.75;3.75;;;;;;;;4974109;28;11471;-71
2020/12/26 12:35:22;;;;;;;;;4.00;4.00;;;;;;;;4972200;28;11499;-72
2020/12/26 12:37:49;;;;;;;;;14.50;10.50;;;;;;;;4972419;28;11607;-71
2020/12/26 12:40:18;;;;;;;;;8.75;5.50;;;;;;;;4965947;28;11508;-71
2020/12/26 12:42:45;;;;;;;;;1.00;1.00;;;;;;;;4977788;28;11615;-71
2020/12/26 12:45:11;;;;;;;;;1.75;1.75;;;;;;;;4966965;28;11238;-72
2020/12/26 12:47:38;;;;;;;;;4.00;2.75;;;;;;;;4974359;28;11263;-72
2020/12/26 12:50:08;;;;;;;;;1.00;1.00;;;;;;;;4974280;28;11489;-71
2020/12/26 12:52:35;;;;;;;;;0.00;0.00;;;;;;;;4970442;28;11483;-71
2020/12/26 12:55:02;;;;;;;;;2.00;2.00;;;;;;;;4972209;28;11168;-72
2020/12/26 12:57:30;;;;;;;;;2.00;2.00;;;;;;;;4970782;28;11284;-71
2020/12/26 12:59:57;;;;;;;;;1.75;1.75;;;;;;;;4967457;28;11439;-70
2020/12/26 13:02:23;;;;;;;;;2.00;2.00;;;;;;;;4964889;28;11118;-71
2020/12/26 13:04:50;;;;;;;;;1.00;1.00;;;;;;;;4963989;28;11230;-71
2020/12/26 13:07:17;;;;;;;;;1.00;1.00;;;;;;;;4969187;28;11149;-71
2020/12/26 13:09:43;;;;;;;;;2.00;2.00;;;;;;;;4969477;28;11194;-71
2020/12/26 13:12:10;;;;;;;;;3.00;1.25;;;;;;;;4968877;28;11171;-72
2020/12/26 13:14:39;;;;;;;;;1.75;1.00;;;;;;;;4973282;28;11178;-73
2020/12/26 13:17:06;;;;;;;;;2.00;1.00;;;;;;;;4978656;28;11317;-71
2020/12/26 13:19:33;;;;;;;;;0.25;0.25;;;;;;;;4976093;28;11002;-71
2020/12/26 13:22:00;;;;;;;;;2.00;2.00;;;;;;;;4976981;28;11016;-71
2020/12/26 13:24:27;;;;;;;;;1.00;1.00;;;;;;;;4978645;28;11238;-72
2020/12/26 13:26:54;;;;;;;;;0.75;0.75;;;;;;;;4977332;28;11111;-71
2020/12/26 13:29:21;;;;;;;;;2.00;2.00;;;;;;;;4967733;28;11191;-70
2020/12/26 13:31:49;;;;;;;;;1.00;1.00;;;;;;;;4975123;28;11234;-71
2020/12/26 13:34:15;;;;;;;;;1.75;1.75;;;;;;;;4974223;28;11947;-70
2020/12/26 13:36:42;;;;;;;;;1.00;1.00;;;;;;;;4974541;28;11457;-71
2020/12/26 13:39:09;;;;;;;;;1.50;1.50;;;;;;;;4982421;28;11840;-71
2020/12/26 13:41:36;;;;;;;;;5.50;2.00;;;;;;;;4968980;28;11282;-71
2020/12/26 13:44:03;;;;;;;;;1.75;1.00;;;;;;;;4984219;28;11238;-71
2020/12/26 13:46:29;;;;;;;;;0.75;0.75;;;;;;;;4963403;28;11174;-71
2020/12/26 13:48:57;;;;;;;;;2.00;1.00;;;;;;;;4973430;28;11161;-72
2020/12/26 13:51:27;;;;;;;;;1.00;1.00;;;;;;;;4975608;28;11216;-71
2020/12/26 13:53:54;;;;;;;;;3.75;1.00;;;;;;;;4962006;28;11267;-71
2020/12/26 13:56:24;;;;;;;;;1.25;1.25;;;;;;;;4970807;28;11362;-71
2020/12/26 13:58:51;;;;;;;;;1.00;1.00;;;;;;;;4979352;28;11118;-71
2020/12/26 14:01:18;;;;;;;;;2.00;2.00;;;;;;;;4968072;28;11120;-71
2020/12/26 14:03:45;;;;;;;;;1.50;1.50;;;;;;;;4973304;28;11187;-71
2020/12/26 14:06:13;;;;;;;;;1.00;1.00;;;;;;;;4968779;28;11179;-71
2020/12/26 14:08:40;;;;;;;;;1.75;1.75;;;;;;;;4966710;28;11284;-71
2020/12/26 14:11:07;;;;;;;;;2.00;2.00;;;;;;;;4968152;28;11154;-71
2020/12/26 14:13:35;;;;;;;;;2.25;1.00;;;;;;;;4971263;28;11250;-71
2020/12/26 14:16:03;;;;;;;;;2.00;2.00;;;;;;;;4979077;28;11259;-72
2020/12/26 14:18:29;;;;;;;;;1.50;1.25;;;;;;;;4974115;28;11464;-71
2020/12/26 14:20:57;;;;;;;;;1.75;1.75;;;;;;;;4978579;28;11196;-71
2020/12/26 14:23:24;;;;;;;;;1.00;1.00;;;;;;;;4975422;28;11377;-70
2020/12/26 14:25:54;;;;;;;;;1.00;1.00;;;;;;;;4977971;28;11157;-70
2020/12/26 14:28:21;;;;;;;;;2.00;2.00;;;;;;;;4983472;28;11455;-70
2020/12/26 14:30:48;;;;;;;;;4.50;2.00;;;;;;;;4965341;28;11555;-72
2020/12/26 14:33:14;;;;;;;;;1.25;1.25;;;;;;;;4970356;28;11636;-71
2020/12/26 14:35:43;;;;;;;;;2.00;2.00;;;;;;;;4973086;28;11548;-72